Time;durP1;ratioP1;P1;durP2;ratioP2;P2;SDS_P1;SDS_P2;PMS_P1;PMS_P2;Temp;Humidity;BMP_temperature;BMP_pressure;BME280_temperature;BME280_humidity;BME280_pressure;Samples;Min_cycle;Max_cycle;Signal;HPM_P1;HPM_P2
2023/04/11 00:01:47;;;;;;;;;;;10.10;99.90;;;;;;5087981;28;19924;-76
2023/04/11 00:04:13;;;;;;;;;;;10.00;99.90;;;;;;5089525;28;19924;-76
2023/04/11 00:06:39;;;;;;;;;;;9.90;99.90;;;;;;5089848;28;19969;-76
2023/04/11 00:09:04;;;;;;;;;;;9.80;99.90;;;;;;5091467;28;19931;-76
2023/04/11 00:11:31;;;;;;;;;;;9.60;99.90;;;;;;5094932;28;20305;-76
2023/04/11 00:13:57;;;;;;;;;;;9.40;99.90;;;;;;5095229;28;19927;-76
2023/04/11 00:16:23;;;;;;;;;;;9.20;99.90;;;;;;5111406;28;19927;-76
2023/04/11 00:18:49;;;;;;;;;;;9.00;99.90;;;;;;5097324;28;20400;-76
2023/04/11 00:21:15;;;;;;;;;;;8.80;99.90;;;;;;5108537;28;20018;-76
2023/04/11 00:23:40;;;;;;;;;;;8.70;99.90;;;;;;5108192;28;19984;-76
2023/04/11 00:26:06;;;;;;;;;;;8.60;99.90;;;;;;5108280;28;19939;-76
2023/04/11 00:28:32;;;;;;;;;;;8.60;99.90;;;;;;5107724;28;19924;-76
2023/04/11 00:30:57;;;;;;;;;;;8.50;99.90;;;;;;5107313;28;19923;-76
2023/04/11 00:33:23;;;;;;;;;;;8.40;99.90;;;;;;5108717;28;20304;-76
2023/04/11 00:35:48;;;;;;;;;;;8.40;99.90;;;;;;5108127;28;19923;-77
2023/04/11 00:38:14;;;;;;;;;;;8.30;99.90;;;;;;5107935;28;19939;-76
2023/04/11 00:40:40;;;;;;;;;;;8.30;99.90;;;;;;5108161;28;19924;-76
2023/04/11 00:43:05;;;;;;;;;;;8.20;99.90;;;;;;5107214;28;19938;-76
2023/04/11 00:45:31;;;;;;;;;;;8.20;99.90;;;;;;5108124;28;19924;-76
2023/04/11 00:47:57;;;;;;;;;;;8.20;99.90;;;;;;5109496;28;19985;-77
2023/04/11 00:50:23;;;;;;;;;;;8.20;99.90;;;;;;5108995;28;19932;-76
2023/04/11 00:52:50;;;;;;;;;;;8.20;99.90;;;;;;5109602;28;19931;-76
2023/04/11 00:55:16;;;;;;;;;;;8.20;99.90;;;;;;5107802;28;19949;-76
2023/04/11 00:57:42;;;;;;;;;;;8.20;99.90;;;;;;5107270;28;19924;-76
2023/04/11 01:00:11;;;;;;;;;;;8.10;99.90;;;;;;5107874;28;19971;-76
2023/04/11 01:02:41;;;;;;;;;;;8.10;99.90;;;;;;5105851;28;20001;-76
2023/04/11 01:05:08;;;;;;;;;;;8.10;99.90;;;;;;5105931;28;20343;-76
2023/04/11 01:07:34;;;;;;;;;;;8.00;99.90;;;;;;5107324;28;19975;-76
2023/04/11 01:10:00;;;;;;;;;;;8.00;99.90;;;;;;5104594;28;19969;-76
2023/04/11 01:12:26;;;;;;;;;;;7.90;99.90;;;;;;5104359;28;19973;-76
2023/04/11 01:14:51;;;;;;;;;;;7.90;99.90;;;;;;5103423;28;19924;-76
2023/04/11 01:17:17;;;;;;;;;;;7.90;99.90;;;;;;5074058;28;19924;-76
2023/04/11 01:19:42;;;;;;;;;;;7.90;99.90;;;;;;5090861;28;20361;-76
2023/04/11 01:22:09;;;;;;;;;;;7.90;99.90;;;;;;5091275;28;20030;-76
2023/04/11 01:24:35;;;;;;;;;;;7.90;99.90;;;;;;5106123;28;20324;-76
2023/04/11 01:27:02;;;;;;;;;;;7.90;99.90;;;;;;5101227;28;19928;-77
2023/04/11 01:29:27;;;;;;;;;;;7.80;99.90;;;;;;5102868;28;20281;-76
2023/04/11 01:31:53;;;;;;;;;;;7.80;99.90;;;;;;5107476;28;19924;-76
2023/04/11 01:34:19;;;;;;;;;;;7.80;99.90;;;;;;5104820;28;19924;-76
2023/04/11 01:36:45;;;;;;;;;;;7.80;99.90;;;;;;5106354;28;19924;-76
2023/04/11 01:39:10;;;;;;;;;;;7.70;99.90;;;;;;5104003;28;20559;-76
2023/04/11 01:41:36;;;;;;;;;;;7.70;99.90;;;;;;5105703;28;20280;-76
2023/04/11 01:44:02;;;;;;;;;;;7.70;99.90;;;;;;5105366;28;19928;-76
2023/04/11 01:46:28;;;;;;;;;;;7.60;99.90;;;;;;5099688;28;19923;-76
2023/04/11 01:48:54;;;;;;;;;;;7.70;99.90;;;;;;5099371;28;20278;-76
2023/04/11 01:51:20;;;;;;;;;;;7.60;99.90;;;;;;5106061;28;20300;-76
2023/04/11 01:53:46;;;;;;;;;;;7.60;99.90;;;;;;5105524;27;19924;-76
2023/04/11 01:56:14;;;;;;;;;;;7.70;99.90;;;;;;5105393;28;20698;-76
2023/04/11 01:58:40;;;;;;;;;;;7.70;99.90;;;;;;5102977;28;19928;-76
2023/04/11 02:01:06;;;;;;;;;;;7.70;99.90;;;;;;5105145;28;19955;-76
2023/04/11 02:03:31;;;;;;;;;;;7.70;99.90;;;;;;5086016;28;20335;-76
2023/04/11 02:05:57;;;;;;;;;;;7.80;99.90;;;;;;5100570;28;19928;-76
2023/04/11 02:08:22;;;;;;;;;;;7.80;99.90;;;;;;5098145;28;20305;-76
2023/04/11 02:10:48;;;;;;;;;;;7.80;99.90;;;;;;5103478;28;20387;-76
2023/04/11 02:13:13;;;;;;;;;;;7.80;99.90;;;;;;5103630;28;19924;-76
2023/04/11 02:15:39;;;;;;;;;;;7.90;99.90;;;;;;5095179;28;20086;-76
2023/04/11 02:18:05;;;;;;;;;;;7.90;99.90;;;;;;5089188;28;19930;-76
2023/04/11 02:20:31;;;;;;;;;;;7.90;99.90;;;;;;5091464;28;19924;-76
2023/04/11 02:22:57;;;;;;;;;;;7.90;99.90;;;;;;5102500;28;19977;-76
2023/04/11 02:25:23;;;;;;;;;;;7.90;99.90;;;;;;5077576;28;20007;-76
2023/04/11 02:27:48;;;;;;;;;;;7.90;99.90;;;;;;5107651;28;20007;-76
2023/04/11 02:30:14;;;;;;;;;;;7.90;99.90;;;;;;5107136;28;19924;-76
2023/04/11 02:32:40;;;;;;;;;;;7.90;99.90;;;;;;5100440;28;19975;-76
2023/04/11 02:35:06;;;;;;;;;;;7.90;99.90;;;;;;5089418;28;20421;-76
2023/04/11 02:37:33;;;;;;;;;;;7.90;99.90;;;;;;5103164;28;19991;-76
2023/04/11 02:39:58;;;;;;;;;;;7.90;99.90;;;;;;5098028;28;20275;-76
2023/04/11 02:42:24;;;;;;;;;;;7.90;99.90;;;;;;5099211;28;19931;-76
2023/04/11 02:44:52;;;;;;;;;;;7.90;99.90;;;;;;5089054;28;19928;-75
2023/04/11 02:47:17;;;;;;;;;;;7.90;99.90;;;;;;5090213;28;19931;-75
2023/04/11 02:49:43;;;;;;;;;;;7.90;99.90;;;;;;5101239;28;20406;-74
2023/04/11 02:52:09;;;;;;;;;;;7.90;99.90;;;;;;5098461;28;19923;-75
2023/04/11 02:54:34;;;;;;;;;;;7.80;99.90;;;;;;5104198;28;19955;-74
2023/04/11 02:57:00;;;;;;;;;;;7.90;99.90;;;;;;5106564;28;19974;-75
2023/04/11 02:59:26;;;;;;;;;;;7.90;99.90;;;;;;5092754;28;19924;-75
2023/04/11 03:01:58;;;;;;;;;;;7.90;99.90;;;;;;5107154;28;19938;-75
2023/04/11 03:04:24;;;;;;;;;;;7.90;99.90;;;;;;5103050;28;19992;-75
2023/04/11 03:06:49;;;;;;;;;;;7.90;99.90;;;;;;5106135;28;19924;-75
2023/04/11 03:09:15;;;;;;;;;;;7.80;99.90;;;;;;5091305;28;19924;-75
2023/04/11 03:11:40;;;;;;;;;;;7.90;99.90;;;;;;5106719;28;19931;-75
2023/04/11 03:14:06;;;;;;;;;;;7.90;99.90;;;;;;5099523;28;19928;-75
2023/04/11 03:16:31;;;;;;;;;;;7.80;99.90;;;;;;5098257;28;20309;-75
2023/04/11 03:18:57;;;;;;;;;;;7.80;99.90;;;;;;5099440;28;19924;-75
2023/04/11 03:21:23;;;;;;;;;;;7.90;99.90;;;;;;5097247;28;19930;-75
2023/04/11 03:23:48;;;;;;;;;;;7.90;99.90;;;;;;5099678;28;19928;-75
2023/04/11 03:26:14;;;;;;;;;;;7.80;99.90;;;;;;5105781;28;20316;-75
2023/04/11 03:28:40;;;;;;;;;;;7.80;99.90;;;;;;5102283;28;19928;-75
2023/04/11 03:31:06;;;;;;;;;;;7.90;99.90;;;;;;5105188;28;19985;-74
2023/04/11 03:33:31;;;;;;;;;;;7.90;99.90;;;;;;5102042;28;19928;-75
2023/04/11 03:35:57;;;;;;;;;;;7.90;99.90;;;;;;5106964;28;19935;-75
2023/04/11 03:38:24;;;;;;;;;;;7.90;99.90;;;;;;5101626;28;19925;-75
2023/04/11 03:40:50;;;;;;;;;;;7.90;99.90;;;;;;5104877;28;19923;-75
2023/04/11 03:43:16;;;;;;;;;;;7.80;99.90;;;;;;5100683;28;20412;-75
2023/04/11 03:45:41;;;;;;;;;;;7.80;99.90;;;;;;5109032;28;19931;-75
2023/04/11 03:48:07;;;;;;;;;;;7.80;99.90;;;;;;5105642;28;19950;-75
2023/04/11 03:50:32;;;;;;;;;;;7.80;99.90;;;;;;5100935;28;19928;-75
2023/04/11 03:52:58;;;;;;;;;;;7.80;99.90;;;;;;5092731;28;19946;-74
2023/04/11 03:55:24;;;;;;;;;;;7.80;99.90;;;;;;5109065;28;19938;-75
2023/04/11 03:57:50;;;;;;;;;;;7.80;99.90;;;;;;5103732;28;19924;-75
2023/04/11 04:00:17;;;;;;;;;;;7.80;99.90;;;;;;5109420;28;19923;-75
2023/04/11 04:02:42;;;;;;;;;;;7.80;99.90;;;;;;5101929;28;19935;-75
2023/04/11 04:05:08;;;;;;;;;;;7.80;99.90;;;;;;5107175;28;20382;-75
2023/04/11 04:07:34;;;;;;;;;;;7.80;99.90;;;;;;5101169;28;19932;-75
2023/04/11 04:09:59;;;;;;;;;;;7.80;99.90;;;;;;5074124;28;19934;-75
2023/04/11 04:12:25;;;;;;;;;;;7.80;99.90;;;;;;5100831;28;19924;-75
2023/04/11 04:14:50;;;;;;;;;;;7.80;99.90;;;;;;5104556;28;19931;-77
2023/04/11 04:17:16;;;;;;;;;;;7.80;99.90;;;;;;5082255;28;19971;-77
2023/04/11 04:19:42;;;;;;;;;;;7.80;99.90;;;;;;5109137;28;19986;-77
2023/04/11 04:22:11;;;;;;;;;;;7.80;99.90;;;;;;5098870;28;19925;-75
2023/04/11 04:24:37;;;;;;;;;;;7.90;99.90;;;;;;5098180;28;19924;-75
2023/04/11 04:27:02;;;;;;;;;;;7.80;99.90;;;;;;5104449;28;19951;-75
2023/04/11 04:29:32;;;;;;;;;;;7.90;99.90;;;;;;5109712;28;19927;-74
2023/04/11 04:31:58;;;;;;;;;;;7.80;99.90;;;;;;5106497;28;20018;-75
2023/04/11 04:34:27;;;;;;;;;;;7.80;99.90;;;;;;5109459;28;19982;-75
2023/04/11 04:36:58;;;;;;;;;;;7.80;99.90;;;;;;5103393;28;19924;-75
2023/04/11 04:39:24;;;;;;;;;;;7.80;99.90;;;;;;5102326;28;20271;-75
2023/04/11 04:42:08;;;;;;;;;;;7.80;99.90;;;;;;5089031;28;20010;-75
2023/04/11 04:44:34;;;;;;;;;;;7.80;99.90;;;;;;5106934;28;19924;-77
2023/04/11 04:46:59;;;;;;;;;;;7.80;99.90;;;;;;5108808;28;19945;-77
2023/04/11 04:49:25;;;;;;;;;;;7.80;99.90;;;;;;5106980;28;20014;-77
2023/04/11 04:51:50;;;;;;;;;;;7.80;99.90;;;;;;5108072;28;20309;-77
2023/04/11 04:54:18;;;;;;;;;;;7.80;99.90;;;;;;5108343;28;19924;-77
2023/04/11 04:56:43;;;;;;;;;;;7.80;99.90;;;;;;5107307;28;20373;-76
2023/04/11 04:59:13;;;;;;;;;;;7.80;99.90;;;;;;5105790;28;19971;-74
2023/04/11 05:01:38;;;;;;;;;;;7.80;99.90;;;;;;5107218;28;19923;-75
2023/04/11 05:04:04;;;;;;;;;;;7.80;99.90;;;;;;5104631;28;20405;-75
2023/04/11 05:06:30;;;;;;;;;;;7.90;99.90;;;;;;5089224;28;19923;-75
2023/04/11 05:08:57;;;;;;;;;;;7.90;99.90;;;;;;5104153;28;19969;-75
2023/04/11 05:11:23;;;;;;;;;;;7.80;99.90;;;;;;5105067;28;19923;-75
2023/04/11 05:13:48;;;;;;;;;;;7.90;99.90;;;;;;5104293;28;19930;-75
2023/04/11 05:16:15;;;;;;;;;;;7.90;99.90;;;;;;5104247;28;19924;-75
2023/04/11 05:18:41;;;;;;;;;;;7.90;99.90;;;;;;5103693;28;20275;-75
2023/04/11 05:21:06;;;;;;;;;;;7.90;99.90;;;;;;5104096;28;19927;-75
2023/04/11 05:23:32;;;;;;;;;;;7.90;99.90;;;;;;5103018;28;19975;-75
2023/04/11 05:25:58;;;;;;;;;;;7.90;99.90;;;;;;5093920;28;20072;-75
2023/04/11 05:28:23;;;;;;;;;;;7.90;99.90;;;;;;5094790;28;19931;-75
2023/04/11 05:30:49;;;;;;;;;;;7.90;99.90;;;;;;5094800;28;19923;-75
2023/04/11 05:33:14;;;;;;;;;;;7.90;99.90;;;;;;5078445;28;20294;-75
2023/04/11 05:35:40;;;;;;;;;;;8.00;99.90;;;;;;5101619;28;20388;-75
2023/04/11 05:38:06;;;;;;;;;;;7.90;99.90;;;;;;5102880;28;19938;-77
2023/04/11 05:40:31;;;;;;;;;;;8.00;99.90;;;;;;5100736;28;20347;-74
2023/04/11 05:42:57;;;;;;;;;;;8.00;99.90;;;;;;5103323;28;19928;-75
2023/04/11 05:45:22;;;;;;;;;;;8.00;99.90;;;;;;5101481;28;20389;-75
2023/04/11 05:47:48;;;;;;;;;;;8.00;99.90;;;;;;5095972;28;19924;-75
2023/04/11 05:50:13;;;;;;;;;;;8.00;99.90;;;;;;5100330;28;20468;-72
2023/04/11 05:52:39;;;;;;;;;;;7.90;99.90;;;;;;5101475;28;19924;-72
2023/04/11 05:55:05;;;;;;;;;;;7.80;99.90;;;;;;5088555;28;19936;-74
2023/04/11 05:57:31;;;;;;;;;;;7.70;99.90;;;;;;5087451;28;19924;-74
2023/04/11 05:59:56;;;;;;;;;;;7.70;99.90;;;;;;5095028;28;20303;-74
2023/04/11 06:02:22;;;;;;;;;;;7.70;99.90;;;;;;5072743;28;19931;-75
2023/04/11 06:04:47;;;;;;;;;;;7.70;99.90;;;;;;5096705;28;20035;-75
2023/04/11 06:07:13;;;;;;;;;;;7.70;99.90;;;;;;5097314;28;20278;-75
2023/04/11 06:09:41;;;;;;;;;;;7.60;99.90;;;;;;5097737;28;20800;-75
2023/04/11 06:12:06;;;;;;;;;;;7.60;99.90;;;;;;5103242;28;19932;-75
2023/04/11 06:14:32;;;;;;;;;;;7.60;99.90;;;;;;5098362;28;20561;-75
2023/04/11 06:16:58;;;;;;;;;;;7.50;99.90;;;;;;5102909;28;20417;-76
2023/04/11 06:19:23;;;;;;;;;;;7.50;99.90;;;;;;5097256;28;19967;-75
2023/04/11 06:21:49;;;;;;;;;;;7.50;99.90;;;;;;5102572;28;19928;-76
2023/04/11 06:24:17;;;;;;;;;;;7.40;99.90;;;;;;5096143;28;19924;-76
2023/04/11 06:26:43;;;;;;;;;;;7.20;99.90;;;;;;5077874;28;20289;-75
2023/04/11 06:29:08;;;;;;;;;;;7.10;99.90;;;;;;5094896;28;19924;-75
2023/04/11 06:31:34;;;;;;;;;;;7.10;99.90;;;;;;5107335;28;19969;-75
2023/04/11 06:34:00;;;;;;;;;;;7.00;99.90;;;;;;5106776;28;20348;-75
2023/04/11 06:36:26;;;;;;;;;;;7.00;99.90;;;;;;5107222;28;19935;-76
2023/04/11 06:38:51;;;;;;;;;;;6.90;99.90;;;;;;5101598;28;19924;-75
2023/04/11 06:41:17;;;;;;;;;;;7.00;99.90;;;;;;5088279;28;20312;-75
2023/04/11 06:43:42;;;;;;;;;;;7.00;99.90;;;;;;5104395;28;20057;-75
2023/04/11 06:46:08;;;;;;;;;;;7.00;99.90;;;;;;5104913;28;20753;-76
2023/04/11 06:48:34;;;;;;;;;;;7.00;99.90;;;;;;5094806;28;20370;-76
2023/04/11 06:50:59;;;;;;;;;;;7.00;99.90;;;;;;5105962;28;20343;-76
2023/04/11 06:53:25;;;;;;;;;;;7.00;99.90;;;;;;5103116;28;19923;-75
2023/04/11 06:55:50;;;;;;;;;;;7.00;99.90;;;;;;5104248;28;20032;-75
2023/04/11 06:58:16;;;;;;;;;;;7.00;99.90;;;;;;5101549;28;19931;-75
2023/04/11 07:00:41;;;;;;;;;;;7.10;99.90;;;;;;5104926;28;19934;-75
2023/04/11 07:03:07;;;;;;;;;;;7.10;99.90;;;;;;5100136;28;19932;-75
2023/04/11 07:05:34;;;;;;;;;;;7.10;99.90;;;;;;5094189;28;19931;-75
2023/04/11 07:08:00;;;;;;;;;;;7.10;99.90;;;;;;5098429;28;19928;-75
2023/04/11 07:10:25;;;;;;;;;;;7.20;99.90;;;;;;5098878;28;20442;-75
2023/04/11 07:12:51;;;;;;;;;;;7.20;99.90;;;;;;5097612;28;19924;-76
2023/04/11 07:15:16;;;;;;;;;;;7.20;99.90;;;;;;5096970;28;19931;-75
2023/04/11 07:17:42;;;;;;;;;;;7.30;99.90;;;;;;5097724;28;19931;-75
2023/04/11 07:20:08;;;;;;;;;;;7.40;99.90;;;;;;5102641;28;19924;-75
2023/04/11 07:22:35;;;;;;;;;;;7.40;99.90;;;;;;5098284;28;20014;-76
2023/04/11 07:25:04;;;;;;;;;;;7.50;99.90;;;;;;5103274;28;19924;-75
2023/04/11 07:27:31;;;;;;;;;;;7.50;99.90;;;;;;5093411;28;19935;-75
2023/04/11 07:29:57;;;;;;;;;;;7.60;99.90;;;;;;5105576;28;20685;-75
2023/04/11 07:32:22;;;;;;;;;;;7.50;99.90;;;;;;5105973;28;19963;-75
2023/04/11 07:34:48;;;;;;;;;;;7.50;99.90;;;;;;5104649;28;20018;-75
2023/04/11 07:37:15;;;;;;;;;;;7.50;99.90;;;;;;5104218;28;19931;-75
2023/04/11 07:39:40;;;;;;;;;;;7.50;99.90;;;;;;5104383;28;20399;-75
2023/04/11 07:42:06;;;;;;;;;;;7.50;99.90;;;;;;5102240;28;20021;-75
2023/04/11 07:44:31;;;;;;;;;;;7.60;99.90;;;;;;5103299;28;19969;-75
2023/04/11 07:46:57;;;;;;;;;;;7.70;99.90;;;;;;5084777;28;19924;-76
2023/04/11 07:49:23;;;;;;;;;;;7.70;99.90;;;;;;5103332;28;20015;-76
2023/04/11 07:51:49;;;;;;;;;;;7.80;99.90;;;;;;5102702;28;20022;-75
2023/04/11 07:54:14;;;;;;;;;;;7.90;99.90;;;;;;5103885;28;19962;-75
2023/04/11 07:56:40;;;;;;;;;;;8.00;99.90;;;;;;5100942;28;20683;-75
2023/04/11 07:59:05;;;;;;;;;;;8.10;99.90;;;;;;5103003;28;20028;-75
2023/04/11 08:01:31;;;;;;;;;;;8.20;99.90;;;;;;5099727;28;20064;-75
2023/04/11 08:03:57;;;;;;;;;;;8.30;99.90;;;;;;5093048;28;19935;-75
2023/04/11 08:06:22;;;;;;;;;;;8.40;99.90;;;;;;5099883;28;20457;-75
2023/04/11 08:08:48;;;;;;;;;;;8.50;99.90;;;;;;5102958;28;19923;-76
2023/04/11 08:11:14;;;;;;;;;;;8.60;99.90;;;;;;5100568;28;19930;-76
2023/04/11 08:13:40;;;;;;;;;;;8.70;99.90;;;;;;5102048;28;20027;-75
2023/04/11 08:16:08;;;;;;;;;;;8.90;99.90;;;;;;5097136;28;19927;-76
2023/04/11 08:18:34;;;;;;;;;;;9.10;99.90;;;;;;5102561;28;19923;-75
2023/04/11 08:21:00;;;;;;;;;;;9.30;99.90;;;;;;5099395;28;20567;-75
2023/04/11 08:23:25;;;;;;;;;;;9.40;99.90;;;;;;5100704;28;20289;-75
2023/04/11 08:25:51;;;;;;;;;;;9.50;99.90;;;;;;5094528;28;19924;-75
2023/04/11 08:28:17;;;;;;;;;;;9.60;99.90;;;;;;5105652;28;19923;-75
2023/04/11 08:30:42;;;;;;;;;;;9.60;99.90;;;;;;5108142;28;19950;-75
2023/04/11 08:33:08;;;;;;;;;;;9.60;99.90;;;;;;5110643;28;19924;-75
2023/04/11 08:35:34;;;;;;;;;;;9.60;99.90;;;;;;5109373;28;20628;-75
2023/04/11 08:38:00;;;;;;;;;;;9.40;99.90;;;;;;5107904;28;19923;-75
2023/04/11 08:40:26;;;;;;;;;;;9.40;99.90;;;;;;5107816;28;19923;-75
2023/04/11 08:42:57;;;;;;;;;;;9.40;99.90;;;;;;5109209;28;19946;-76
2023/04/11 08:45:22;;;;;;;;;;;9.30;99.90;;;;;;5103814;28;20305;-75
2023/04/11 08:47:48;;;;;;;;;;;9.30;99.90;;;;;;5102367;28;19924;-75
2023/04/11 08:50:14;;;;;;;;;;;9.20;99.90;;;;;;5102458;28;20450;-75
2023/04/11 08:52:40;;;;;;;;;;;9.10;99.90;;;;;;5102045;28;20274;-75
2023/04/11 08:55:05;;;;;;;;;;;9.00;99.90;;;;;;5107460;28;19934;-75
2023/04/11 08:57:31;;;;;;;;;;;9.10;99.90;;;;;;5089464;28;20366;-75
2023/04/11 09:00:06;;;;;;;;;;;9.20;99.90;;;;;;5106420;28;19935;-75
2023/04/11 09:02:32;;;;;;;;;;;9.10;99.90;;;;;;5105419;28;19932;-75
2023/04/11 09:04:57;;;;;;;;;;;8.90;99.90;;;;;;5108192;28;20309;-75
2023/04/11 09:07:23;;;;;;;;;;;8.80;99.90;;;;;;5106009;28;19924;-75
2023/04/11 09:09:49;;;;;;;;;;;9.00;99.90;;;;;;5106593;28;20002;-76
2023/04/11 09:12:14;;;;;;;;;;;9.10;99.90;;;;;;5104348;28;19943;-75
2023/04/11 09:14:40;;;;;;;;;;;9.10;99.90;;;;;;5106496;28;19935;-75
2023/04/11 09:17:13;;;;;;;;;;;9.00;99.90;;;;;;5104367;28;19931;-75
2023/04/11 09:19:40;;;;;;;;;;;9.10;99.90;;;;;;5101717;28;19924;-75
2023/04/11 09:22:07;;;;;;;;;;;9.10;99.90;;;;;;5100496;28;19977;-75
2023/04/11 09:24:32;;;;;;;;;;;8.80;99.90;;;;;;5100567;28;19924;-75
2023/04/11 09:27:15;;;;;;;;;;;8.40;99.90;;;;;;5092929;28;20003;-75
2023/04/11 09:29:41;;;;;;;;;;;8.20;99.90;;;;;;5110308;28;19927;-76
2023/04/11 09:32:24;;;;;;;;;;;8.30;99.90;;;;;;5095921;28;19927;-76
2023/04/11 09:34:49;;;;;;;;;;;8.30;99.90;;;;;;5107559;28;19995;-75
2023/04/11 09:37:15;;;;;;;;;;;8.80;99.90;;;;;;5108205;28;20453;-76
2023/04/11 09:39:41;;;;;;;;;;;9.30;99.90;;;;;;5108140;28;20667;-76
2023/04/11 09:42:22;;;;;;;;;;;9.30;99.90;;;;;;5106517;28;19932;-75
2023/04/11 09:44:48;;;;;;;;;;;9.20;99.90;;;;;;5105340;28;19931;-76
2023/04/11 09:47:14;;;;;;;;;;;9.10;99.90;;;;;;5108425;28;19924;-76
2023/04/11 09:49:39;;;;;;;;;;;9.00;99.90;;;;;;5087098;28;20310;-75
2023/04/11 09:52:05;;;;;;;;;;;8.90;99.90;;;;;;5090458;28;19972;-75
2023/04/11 09:54:30;;;;;;;;;;;8.90;99.90;;;;;;5104514;28;20023;-75
2023/04/11 09:56:57;;;;;;;;;;;8.80;99.90;;;;;;5108755;28;20398;-75
2023/04/11 09:59:25;;;;;;;;;;;8.80;99.90;;;;;;5105076;28;19928;-75
2023/04/11 10:01:50;;;;;;;;;;;8.90;99.90;;;;;;5096382;28;19927;-75
2023/04/11 10:04:16;;;;;;;;;;;8.70;99.90;;;;;;5102623;28;19924;-75
2023/04/11 10:06:51;;;;;;;;;;;8.50;99.90;;;;;;5107167;28;19930;-75
2023/04/11 10:09:17;;;;;;;;;;;8.30;99.90;;;;;;5102930;28;19924;-75
2023/04/11 10:11:43;;;;;;;;;;;8.30;99.90;;;;;;5106432;28;19934;-76
2023/04/11 10:14:28;;;;;;;;;;;8.40;99.90;;;;;;5103229;28;20336;-75
2023/04/11 10:17:10;;;;;;;;;;;8.50;99.90;;;;;;5104659;28;19927;-75
2023/04/11 10:19:36;;;;;;;;;;;8.90;99.90;;;;;;5088789;28;19950;-75
2023/04/11 10:22:01;;;;;;;;;;;10.10;99.90;;;;;;5086083;28;19939;-76
2023/04/11 10:24:27;;;;;;;;;;;11.10;99.90;;;;;;5099232;28;20011;-76
2023/04/11 10:27:02;;;;;;;;;;;11.40;99.90;;;;;;5100240;28;19957;-75
2023/04/11 10:32:06;;;;;;;;;;;12.00;99.90;;;;;;5104506;28;19939;-76
2023/04/11 10:34:32;;;;;;;;;;;11.60;99.90;;;;;;5107220;28;19930;-75
2023/04/11 10:37:03;;;;;;;;;;;11.00;99.90;;;;;;5101704;28;19932;-76
2023/04/11 10:40:05;;;;;;;;;;;10.40;99.90;;;;;;5105628;28;19924;-76
2023/04/11 10:42:31;;;;;;;;;;;10.10;99.90;;;;;;5088715;28;20364;-75
2023/04/11 10:45:12;;;;;;;;;;;9.80;99.90;;;;;;5102119;28;19974;-75
2023/04/11 10:47:38;;;;;;;;;;;9.80;99.90;;;;;;5087494;28;19924;-76
2023/04/11 10:50:23;;;;;;;;;;;9.90;99.90;;;;;;5100531;28;19932;-75
2023/04/11 10:52:49;;;;;;;;;;;10.20;99.90;;;;;;5074844;28;20027;-75
2023/04/11 10:55:16;;;;;;;;;;;11.10;99.90;;;;;;5104521;28;20421;-76
2023/04/11 10:58:00;;;;;;;;;;;11.80;99.90;;;;;;5091913;28;19924;-75
2023/04/11 11:00:26;;;;;;;;;;;12.10;99.90;;;;;;5096409;28;19924;-75
2023/04/11 11:02:52;;;;;;;;;;;12.10;99.90;;;;;;5097549;28;19924;-76
2023/04/11 11:05:19;;;;;;;;;;;12.60;99.90;;;;;;5103230;28;19946;-75
2023/04/11 11:07:45;;;;;;;;;;;13.10;99.90;;;;;;5076285;28;20002;-75
2023/04/11 11:10:11;;;;;;;;;;;13.50;99.90;;;;;;5104260;28;20322;-75
2023/04/11 11:12:36;;;;;;;;;;;13.70;99.90;;;;;;5083137;28;19924;-76
2023/04/11 11:15:11;;;;;;;;;;;13.40;99.90;;;;;;5096849;28;20447;-76
2023/04/11 11:17:36;;;;;;;;;;;13.30;99.90;;;;;;5089181;28;19950;-75
2023/04/11 11:20:08;;;;;;;;;;;13.10;99.90;;;;;;5094906;28;19924;-75
2023/04/11 11:22:34;;;;;;;;;;;12.60;99.90;;;;;;5085792;28;19924;-75
2023/04/11 11:25:07;;;;;;;;;;;12.70;99.90;;;;;;5094216;28;19978;-75
2023/04/11 11:27:33;;;;;;;;;;;13.20;99.90;;;;;;5105012;28;19934;-76
2023/04/11 11:30:09;;;;;;;;;;;13.10;99.90;;;;;;5094505;28;20122;-75
2023/04/11 11:32:34;;;;;;;;;;;12.90;99.90;;;;;;5105244;28;19963;-76
2023/04/11 11:35:11;;;;;;;;;;;12.60;99.90;;;;;;5085010;28;19997;-75
2023/04/11 11:37:36;;;;;;;;;;;12.10;99.90;;;;;;5097081;28;19976;-75
2023/04/11 11:40:08;;;;;;;;;;;11.40;99.90;;;;;;5100721;28;19924;-75
2023/04/11 11:42:35;;;;;;;;;;;10.70;99.90;;;;;;5082936;28;19924;-75
2023/04/11 11:45:33;;;;;;;;;;;10.00;99.90;;;;;;5096547;28;19924;-75
2023/04/11 11:47:58;;;;;;;;;;;9.60;99.90;;;;;;5045054;28;20422;-75
2023/04/11 11:50:25;;;;;;;;;;;9.50;99.90;;;;;;5084736;28;19955;-75
2023/04/11 11:52:51;;;;;;;;;;;9.40;99.90;;;;;;5100467;28;19947;-75
2023/04/11 11:55:17;;;;;;;;;;;9.30;99.90;;;;;;5097042;28;20304;-75
2023/04/11 11:57:43;;;;;;;;;;;9.30;99.90;;;;;;5095668;28;20022;-75
2023/04/11 12:00:09;;;;;;;;;;;9.30;99.90;;;;;;5096584;28;20317;-75
2023/04/11 12:02:35;;;;;;;;;;;9.30;99.90;;;;;;5095876;28;19931;-75
2023/04/11 12:05:03;;;;;;;;;;;9.70;99.90;;;;;;5102186;28;20373;-75
2023/04/11 12:07:31;;;;;;;;;;;10.00;99.90;;;;;;5096641;28;19924;-75
2023/04/11 12:10:00;;;;;;;;;;;10.00;99.90;;;;;;5099807;28;20793;-75
2023/04/11 12:12:36;;;;;;;;;;;9.90;99.90;;;;;;5100887;28;20007;-76
2023/04/11 12:15:05;;;;;;;;;;;10.00;99.90;;;;;;5098528;28;20307;-75
2023/04/11 12:17:34;;;;;;;;;;;10.50;99.90;;;;;;5099624;28;19924;-76
2023/04/11 12:19:59;;;;;;;;;;;11.10;99.90;;;;;;5088259;28;19924;-76
2023/04/11 12:22:25;;;;;;;;;;;11.40;99.90;;;;;;5100639;28;20308;-76
2023/04/11 12:24:51;;;;;;;;;;;11.20;99.90;;;;;;5101801;28;20478;-76
2023/04/11 12:27:17;;;;;;;;;;;11.40;99.90;;;;;;5095451;28;20405;-75
2023/04/11 12:29:42;;;;;;;;;;;11.50;99.90;;;;;;5097672;28;19928;-75
2023/04/11 12:32:08;;;;;;;;;;;11.20;99.90;;;;;;5095304;28;19928;-75
2023/04/11 12:34:33;;;;;;;;;;;10.70;99.90;;;;;;5098466;28;19967;-75
2023/04/11 12:36:59;;;;;;;;;;;10.40;99.90;;;;;;5094069;28;19935;-75
2023/04/11 12:39:24;;;;;;;;;;;10.50;99.90;;;;;;5098881;28;20449;-75
2023/04/11 12:41:50;;;;;;;;;;;11.20;99.90;;;;;;5095450;28;20393;-75
2023/04/11 12:44:15;;;;;;;;;;;11.90;99.90;;;;;;5093678;28;19923;-76
2023/04/11 12:46:41;;;;;;;;;;;12.70;99.90;;;;;;5092542;28;19971;-76
2023/04/11 12:49:06;;;;;;;;;;;13.20;99.90;;;;;;5097498;28;20526;-75
2023/04/11 12:51:32;;;;;;;;;;;13.40;99.90;;;;;;5095873;28;20057;-76
2023/04/11 12:53:57;;;;;;;;;;;13.60;99.90;;;;;;5080075;28;19928;-76
2023/04/11 12:56:23;;;;;;;;;;;13.40;99.90;;;;;;5097263;28;19946;-76
2023/04/11 12:58:49;;;;;;;;;;;13.00;99.90;;;;;;5092540;28;19924;-76
2023/04/11 13:01:15;;;;;;;;;;;13.00;99.90;;;;;;5094590;28;20385;-76
2023/04/11 13:03:40;;;;;;;;;;;12.80;99.90;;;;;;5096251;28;20473;-76
2023/04/11 13:06:06;;;;;;;;;;;12.50;99.90;;;;;;5094793;28;20011;-76
2023/04/11 13:08:32;;;;;;;;;;;12.20;99.90;;;;;;5093852;28;19924;-76
2023/04/11 13:10:57;;;;;;;;;;;12.10;99.90;;;;;;5091587;28;19935;-76
2023/04/11 13:13:23;;;;;;;;;;;12.10;99.90;;;;;;5092420;28;19931;-76
2023/04/11 13:15:48;;;;;;;;;;;11.90;99.90;;;;;;5091820;28;19924;-76
2023/04/11 13:18:14;;;;;;;;;;;11.60;99.90;;;;;;5076643;28;19931;-75
2023/04/11 13:20:39;;;;;;;;;;;11.20;99.90;;;;;;5092880;28;20359;-75
2023/04/11 13:23:05;;;;;;;;;;;10.90;99.90;;;;;;5094655;28;20343;-76
2023/04/11 13:25:30;;;;;;;;;;;10.60;99.90;;;;;;5094464;28;19928;-76
2023/04/11 13:27:56;;;;;;;;;;;10.50;99.90;;;;;;5110495;28;20444;-76
2023/04/11 13:30:22;;;;;;;;;;;11.30;99.90;;;;;;5107639;28;19924;-76
2023/04/11 13:32:47;;;;;;;;;;;12.20;99.90;;;;;;5109543;28;20745;-76
2023/04/11 13:35:13;;;;;;;;;;;13.00;99.90;;;;;;5106232;28;19931;-76
2023/04/11 13:37:38;;;;;;;;;;;13.40;99.90;;;;;;5107451;28;19928;-76
2023/04/11 13:40:09;;;;;;;;;;;13.20;99.90;;;;;;5102494;28;19960;-76
2023/04/11 13:42:35;;;;;;;;;;;12.80;99.90;;;;;;5105826;28;19927;-76
2023/04/11 13:45:01;;;;;;;;;;;12.30;99.90;;;;;;5100948;28;19935;-76
2023/04/11 13:47:26;;;;;;;;;;;11.80;99.90;;;;;;5105941;28;19924;-76
2023/04/11 13:49:52;;;;;;;;;;;11.20;99.90;;;;;;5100846;28;19928;-76
2023/04/11 13:52:17;;;;;;;;;;;10.70;99.90;;;;;;5105525;28;19997;-76
2023/04/11 13:54:43;;;;;;;;;;;10.50;99.90;;;;;;5099048;28;19925;-76
2023/04/11 13:57:08;;;;;;;;;;;11.30;99.90;;;;;;5104884;28;19973;-76
2023/04/11 13:59:34;;;;;;;;;;;11.80;99.90;;;;;;5099419;28;19924;-76
2023/04/11 14:02:01;;;;;;;;;;;11.80;99.90;;;;;;5095654;28;19969;-76
2023/04/11 14:04:26;;;;;;;;;;;12.10;99.90;;;;;;5098741;28;19974;-76
2023/04/11 14:06:54;;;;;;;;;;;11.80;99.90;;;;;;5095272;28;20393;-76
2023/04/11 14:09:20;;;;;;;;;;;11.50;99.90;;;;;;5097964;28;19963;-76
2023/04/11 14:11:45;;;;;;;;;;;11.30;99.90;;;;;;5101031;28;19975;-76
2023/04/11 14:14:11;;;;;;;;;;;11.30;99.90;;;;;;5098169;28;19924;-76
2023/04/11 14:16:36;;;;;;;;;;;11.40;99.90;;;;;;5084415;28;19927;-76
2023/04/11 14:19:02;;;;;;;;;;;11.70;99.90;;;;;;5099222;28;19924;-76
2023/04/11 14:21:27;;;;;;;;;;;12.40;99.90;;;;;;5102711;28;20635;-76
2023/04/11 14:23:53;;;;;;;;;;;13.50;99.90;;;;;;5090333;28;19932;-76
2023/04/11 14:26:18;;;;;;;;;;;14.30;99.90;;;;;;5099537;28;19959;-76